Terminal Aerodrome Forecast
Issued by NWS Omaha/Valley, NE

Home | Current Version | Previous Version | Text Only | Print | Product List | Glossary On
Versions: 1 2 3 4 5 6 7 8 9 10 11 12 13 14 15 16 17 18 19 20
000
FTUS43 KOAX 162050 AAA
TAFOMA
TAF AMD
KOMA 162050Z 1621/1718 19012G20KT P6SM SKC
     FM170200 16007KT P6SM SKC WS020/22035KT
     FM171200 17007KT P6SM SKC=

USA.gov is the U.S. government's official web portal to all federal, state and local government web resources and services.